Time;durP1;ratioP1;P1;durP2;ratioP2;P2;SDS_P1;SDS_P2;PMS_P1;PMS_P2;Temp;Humidity;BMP_temperature;BMP_pressure;BME280_temperature;BME280_humidity;BME280_pressure;Samples;Min_cycle;Max_cycle;Signal;HPM_P1;HPM_P2
2022/03/23 00:01:40;;;;;;;32.58;16.10;;;;;;;;;;5094541;28;20028;-49
2022/03/23 00:04:06;;;;;;;33.75;16.73;;;;;;;;;;5094088;28;20547;-50
2022/03/23 00:06:32;;;;;;;40.05;17.27;;;;;;;;;;5094146;28;20032;-49
2022/03/23 00:08:58;;;;;;;27.13;15.27;;;;;;;;;;5094101;28;20016;-49
2022/03/23 00:11:24;;;;;;;34.22;16.02;;;;;;;;;;5094335;28;20016;-52
2022/03/23 00:13:50;;;;;;;29.80;16.50;;;;;;;;;;5094263;28;20077;-52
2022/03/23 00:16:16;;;;;;;31.02;16.65;;;;;;;;;;5093874;28;20372;-54
2022/03/23 00:18:41;;;;;;;31.42;15.85;;;;;;;;;;5093808;28;20031;-52
2022/03/23 00:21:07;;;;;;;34.33;16.75;;;;;;;;;;5094123;28;20024;-46
2022/03/23 00:23:32;;;;;;;25.77;14.77;;;;;;;;;;5093644;28;20028;-52
2022/03/23 00:26:01;;;;;;;30.60;16.05;;;;;;;;;;5093928;28;20144;-52
2022/03/23 00:28:27;;;;;;;32.60;15.55;;;;;;;;;;5076450;28;20028;-54
2022/03/23 00:30:53;;;;;;;30.27;15.93;;;;;;;;;;5093560;28;20023;-51
2022/03/23 00:33:21;;;;;;;26.13;14.45;;;;;;;;;;5093889;28;20174;-54
2022/03/23 00:35:48;;;;;;;27.50;14.68;;;;;;;;;;5093472;28;20387;-54
2022/03/23 00:38:15;;;;;;;28.33;15.15;;;;;;;;;;5093851;28;20020;-54
2022/03/23 00:40:41;;;;;;;34.13;15.35;;;;;;;;;;5093477;28;20513;-46
2022/03/23 00:43:07;;;;;;;30.30;14.50;;;;;;;;;;5093295;28;20024;-46
2022/03/23 00:45:33;;;;;;;27.55;13.85;;;;;;;;;;5093681;28;20023;-46
2022/03/23 00:47:59;;;;;;;28.63;14.52;;;;;;;;;;5093618;28;20023;-46
2022/03/23 00:50:25;;;;;;;26.60;14.57;;;;;;;;;;5093577;28;20028;-46
2022/03/23 00:52:50;;;;;;;35.08;15.20;;;;;;;;;;5093391;28;20077;-46
2022/03/23 00:55:16;;;;;;;24.83;14.27;;;;;;;;;;5093118;28;20036;-47
2022/03/23 00:57:42;;;;;;;24.83;14.02;;;;;;;;;;5093363;28;20032;-47
2022/03/23 01:00:12;;;;;;;24.15;13.40;;;;;;;;;;5093124;28;20054;-47
2022/03/23 01:02:42;;;;;;;35.63;15.00;;;;;;;;;;5093046;28;20027;-46
2022/03/23 01:05:09;;;;;;;27.63;14.98;;;;;;;;;;5092935;28;20085;-47
2022/03/23 01:07:35;;;;;;;29.17;14.07;;;;;;;;;;5093307;28;20032;-47
2022/03/23 01:10:01;;;;;;;26.00;13.82;;;;;;;;;;5092850;28;20058;-48
2022/03/23 01:12:27;;;;;;;34.08;14.35;;;;;;;;;;5092917;28;20020;-46
2022/03/23 01:14:53;;;;;;;30.42;14.75;;;;;;;;;;5092464;28;20295;-46
2022/03/23 01:17:18;;;;;;;28.98;15.05;;;;;;;;;;5092797;28;20039;-46
2022/03/23 01:19:44;;;;;;;29.38;14.85;;;;;;;;;;5092758;28;20024;-46
2022/03/23 01:22:10;;;;;;;34.20;14.15;;;;;;;;;;5093018;28;20024;-46
2022/03/23 01:24:35;;;;;;;30.48;14.55;;;;;;;;;;5092694;28;20036;-47
2022/03/23 01:27:03;;;;;;;31.30;15.77;;;;;;;;;;5092787;28;20142;-46
2022/03/23 01:29:29;;;;;;;38.42;16.20;;;;;;;;;;5092610;28;20035;-47
2022/03/23 01:31:55;;;;;;;38.17;16.92;;;;;;;;;;5092608;28;20024;-48
2022/03/23 01:34:20;;;;;;;33.83;15.82;;;;;;;;;;5092579;28;20028;-46
2022/03/23 01:36:46;;;;;;;35.47;16.73;;;;;;;;;;5092845;28;20140;-46
2022/03/23 01:39:12;;;;;;;41.08;17.55;;;;;;;;;;5092893;28;20072;-46
2022/03/23 01:41:39;;;;;;;38.45;17.30;;;;;;;;;;5092780;28;20456;-46
2022/03/23 01:44:29;;;;;;;35.00;17.00;;;;;;;;;;5092683;28;20024;-47
2022/03/23 01:46:58;;;;;;;39.20;16.30;;;;;;;;;;5092718;28;20044;-47
2022/03/23 01:49:24;;;;;;;35.13;18.13;;;;;;;;;;5092775;28;20027;-46
2022/03/23 01:51:49;;;;;;;34.00;17.27;;;;;;;;;;5092680;28;20432;-46
2022/03/23 01:54:15;;;;;;;37.97;16.45;;;;;;;;;;5092285;28;20052;-47
2022/03/23 01:56:41;;;;;;;34.97;15.98;;;;;;;;;;5092692;28;20051;-46
2022/03/23 01:59:08;;;;;;;29.60;15.50;;;;;;;;;;5092303;28;20024;-47
2022/03/23 02:01:35;;;;;;;35.58;16.23;;;;;;;;;;5074488;28;20523;-47
2022/03/23 02:04:01;;;;;;;34.80;16.35;;;;;;;;;;5092251;28;20043;-46
2022/03/23 02:06:26;;;;;;;42.42;17.77;;;;;;;;;;5092212;28;20017;-46
2022/03/23 02:08:52;;;;;;;31.75;16.10;;;;;;;;;;5092270;28;20039;-46
2022/03/23 02:11:17;;;;;;;42.70;16.90;;;;;;;;;;5092461;28;20027;-47
2022/03/23 02:13:43;;;;;;;31.45;15.90;;;;;;;;;;5092531;28;20032;-46
2022/03/23 02:16:09;;;;;;;37.40;16.90;;;;;;;;;;5092503;28;20107;-48
2022/03/23 02:18:35;;;;;;;30.70;15.38;;;;;;;;;;5092451;28;20060;-47
2022/03/23 02:21:01;;;;;;;37.63;16.27;;;;;;;;;;5092139;28;20031;-46
2022/03/23 02:23:26;;;;;;;38.28;16.15;;;;;;;;;;5092376;28;20020;-47
2022/03/23 02:26:01;;;;;;;33.72;16.08;;;;;;;;;;5093463;28;20028;-46
2022/03/23 02:28:31;;;;;;;42.95;16.75;;;;;;;;;;5096061;28;20077;-48
2022/03/23 02:30:57;;;;;;;41.50;17.15;;;;;;;;;;5095986;28;20030;-48
2022/03/23 02:33:24;;;;;;;42.53;16.98;;;;;;;;;;5096299;28;20036;-47
2022/03/23 02:35:49;;;;;;;33.05;14.82;;;;;;;;;;5096006;28;20028;-50
2022/03/23 02:38:16;;;;;;;32.55;15.85;;;;;;;;;;5096105;28;20062;-49
2022/03/23 02:40:42;;;;;;;34.65;15.95;;;;;;;;;;5096122;28;20379;-53
2022/03/23 02:43:08;;;;;;;38.97;16.92;;;;;;;;;;5096066;28;20024;-50
2022/03/23 02:45:34;;;;;;;30.77;15.10;;;;;;;;;;5095730;28;20031;-50
2022/03/23 02:47:59;;;;;;;33.35;16.05;;;;;;;;;;5095729;28;20031;-49
2022/03/23 02:50:26;;;;;;;32.63;16.70;;;;;;;;;;5095607;28;20043;-52
2022/03/23 03:04:05;;;;;;;35.03;15.90;;;;;;;;;;5095853;28;20414;-51
2022/03/23 03:06:30;;;;;;;32.88;15.68;;;;;;;;;;5095331;28;20369;-55
2022/03/23 03:08:56;;;;;;;32.45;16.30;;;;;;;;;;5095244;28;20041;-51
2022/03/23 03:11:23;;;;;;;34.08;16.17;;;;;;;;;;5095188;28;20085;-49
2022/03/23 03:13:50;;;;;;;35.10;16.17;;;;;;;;;;5095152;28;20574;-54
2022/03/23 03:16:17;;;;;;;35.63;16.08;;;;;;;;;;5095103;28;20464;-47
2022/03/23 03:18:43;;;;;;;33.78;15.57;;;;;;;;;;5095115;28;20534;-47
2022/03/23 03:21:09;;;;;;;32.58;17.00;;;;;;;;;;5095003;28;20055;-46
2022/03/23 03:23:43;;;;;;;39.38;16.50;;;;;;;;;;5094917;28;20486;-47
2022/03/23 03:26:10;;;;;;;30.90;16.25;;;;;;;;;;5095066;28;20069;-46
2022/03/23 03:28:37;;;;;;;29.88;14.98;;;;;;;;;;5094839;28;20475;-47
2022/03/23 03:31:04;;;;;;;33.03;15.63;;;;;;;;;;5095118;28;20028;-46
2022/03/23 03:33:30;;;;;;;33.65;15.63;;;;;;;;;;5094762;28;20488;-46
2022/03/23 03:35:56;;;;;;;25.63;13.68;;;;;;;;;;5094721;28;20027;-48
2022/03/23 03:38:21;;;;;;;26.73;13.35;;;;;;;;;;5094691;28;20016;-46
2022/03/23 03:40:47;;;;;;;12.73;8.48;;;;;;;;;;5094922;28;20016;-46
2022/03/23 03:43:12;;;;;;;16.90;8.63;;;;;;;;;;5094826;28;20032;-46
2022/03/23 03:45:38;;;;;;;17.02;6.90;;;;;;;;;;5094830;28;20380;-46
2022/03/23 03:48:04;;;;;;;23.70;11.73;;;;;;;;;;5094470;28;20069;-46
2022/03/23 03:50:29;;;;;;;40.75;9.48;;;;;;;;;;5094429;28;20036;-47
2022/03/23 03:52:55;;;;;;;14.35;8.63;;;;;;;;;;5094699;28;20024;-46
2022/03/23 03:55:20;;;;;;;6.47;3.53;;;;;;;;;;5094222;28;20071;-49
2022/03/23 03:57:46;;;;;;;16.70;7.95;;;;;;;;;;5094603;28;20032;-48
2022/03/23 04:00:13;;;;;;;33.58;14.20;;;;;;;;;;5094226;28;20384;-47
2022/03/23 04:02:39;;;;;;;30.30;15.02;;;;;;;;;;5094480;28;20024;-46
2022/03/23 04:05:05;;;;;;;28.27;12.68;;;;;;;;;;5094378;28;20426;-47
2022/03/23 04:07:34;;;;;;;26.95;13.60;;;;;;;;;;5094325;28;20039;-47
2022/03/23 04:10:04;;;;;;;36.10;15.90;;;;;;;;;;5094026;28;20416;-47
2022/03/23 04:12:29;;;;;;;34.17;16.10;;;;;;;;;;5093980;28;20035;-47
2022/03/23 04:14:55;;;;;;;30.67;15.40;;;;;;;;;;5094259;28;20032;-49
2022/03/23 04:17:20;;;;;;;37.70;15.10;;;;;;;;;;5094287;28;20081;-47
2022/03/23 04:19:46;;;;;;;34.20;15.45;;;;;;;;;;5093880;28;20035;-47
2022/03/23 04:22:12;;;;;;;36.40;16.92;;;;;;;;;;5093841;28;20351;-49
2022/03/23 04:24:38;;;;;;;41.95;16.05;;;;;;;;;;5094070;28;20116;-47
2022/03/23 04:27:05;;;;;;;32.88;15.63;;;;;;;;;;5094012;28;20431;-47
2022/03/23 04:29:31;;;;;;;34.08;15.73;;;;;;;;;;5094023;28;20403;-47
2022/03/23 04:31:56;;;;;;;35.17;15.13;;;;;;;;;;5093988;28;20025;-47
2022/03/23 04:34:22;;;;;;;39.10;15.95;;;;;;;;;;5093910;28;20073;-47
2022/03/23 04:36:47;;;;;;;29.67;14.82;;;;;;;;;;5093687;28;20055;-46
2022/03/23 04:39:13;;;;;;;34.95;15.48;;;;;;;;;;5093784;28;20109;-47
2022/03/23 04:41:38;;;;;;;27.02;12.80;;;;;;;;;;5093424;28;20376;-47
2022/03/23 04:44:04;;;;;;;36.75;16.08;;;;;;;;;;5093685;28;20058;-46
2022/03/23 04:46:30;;;;;;;42.55;17.13;;;;;;;;;;5093656;28;20364;-47
2022/03/23 04:48:55;;;;;;;35.65;15.73;;;;;;;;;;5092998;28;20476;-50
2022/03/23 04:51:20;;;;;;;37.25;17.15;;;;;;;;;;5093350;28;20073;-48
2022/03/23 04:53:46;;;;;;;38.53;15.77;;;;;;;;;;5092996;28;20132;-46
2022/03/23 04:56:12;;;;;;;26.00;13.48;;;;;;;;;;5093481;28;20046;-47
2022/03/23 04:58:37;;;;;;;24.88;11.38;;;;;;;;;;5093453;28;20383;-46
2022/03/23 05:01:03;;;;;;;22.73;10.80;;;;;;;;;;5093430;28;20028;-46
2022/03/23 05:03:29;;;;;;;17.42;9.07;;;;;;;;;;5093048;28;20400;-46
2022/03/23 05:05:55;;;;;;;29.73;15.27;;;;;;;;;;5093292;28;20027;-46
2022/03/23 05:08:20;;;;;;;30.23;15.10;;;;;;;;;;5093217;28;20024;-47
2022/03/23 05:10:46;;;;;;;23.10;10.85;;;;;;;;;;5092801;28;20024;-47
2022/03/23 05:13:11;;;;;;;10.10;5.82;;;;;;;;;;5093094;28;20020;-50
2022/03/23 05:15:37;;;;;;;36.55;15.55;;;;;;;;;;5092820;28;20028;-46
2022/03/23 05:18:03;;;;;;;33.70;16.00;;;;;;;;;;5075153;28;20024;-48
2022/03/23 05:20:29;;;;;;;39.72;16.00;;;;;;;;;;5092727;28;20468;-47
2022/03/23 05:22:54;;;;;;;30.70;16.05;;;;;;;;;;5092722;28;20032;-48
2022/03/23 05:25:21;;;;;;;22.92;10.93;;;;;;;;;;5092875;28;20114;-46
2022/03/23 05:27:47;;;;;;;19.65;10.40;;;;;;;;;;5092642;28;20024;-48
2022/03/23 05:30:13;;;;;;;24.48;13.10;;;;;;;;;;5092607;28;20039;-46
2022/03/23 05:32:40;;;;;;;28.63;12.75;;;;;;;;;;5092569;28;20016;-47
2022/03/23 05:35:08;;;;;;;21.45;9.13;;;;;;;;;;5092618;28;20030;-48
2022/03/23 05:37:33;;;;;;;15.32;7.72;;;;;;;;;;5092851;28;20505;-54
2022/03/23 05:39:59;;;;;;;14.63;5.90;;;;;;;;;;5092477;28;20032;-52
2022/03/23 05:42:25;;;;;;;32.78;15.20;;;;;;;;;;5092532;28;20033;-51
2022/03/23 05:44:50;;;;;;;30.35;15.32;;;;;;;;;;5092411;28;20050;-50
2022/03/23 05:47:16;;;;;;;35.25;15.13;;;;;;;;;;5092492;28;20537;-53
2022/03/23 05:49:42;;;;;;;28.58;15.43;;;;;;;;;;5092668;28;20025;-47
2022/03/23 05:52:07;;;;;;;32.15;15.95;;;;;;;;;;5092358;28;20023;-47
2022/03/23 05:54:33;;;;;;;24.10;13.25;;;;;;;;;;5092247;28;20055;-47
2022/03/23 05:57:02;;;;;;;28.45;8.68;;;;;;;;;;5092392;28;20020;-47
2022/03/23 05:59:29;;;;;;;23.90;10.95;;;;;;;;;;5092958;28;20100;-48
2022/03/23 06:01:54;;;;;;;13.32;7.32;;;;;;;;;;5096544;28;20028;-49
2022/03/23 06:04:20;;;;;;;8.95;4.88;;;;;;;;;;5096649;28;20035;-47
2022/03/23 06:06:45;;;;;;;10.93;6.15;;;;;;;;;;5096647;28;20043;-46
2022/03/23 06:09:12;;;;;;;11.48;5.68;;;;;;;;;;5096779;28;20452;-47
2022/03/23 06:11:39;;;;;;;6.78;4.25;;;;;;;;;;5096196;28;20020;-47
2022/03/23 06:14:04;;;;;;;12.57;5.90;;;;;;;;;;5096297;28;20517;-46
2022/03/23 06:16:30;;;;;;;13.85;7.45;;;;;;;;;;5096554;28;20040;-48
2022/03/23 06:18:55;;;;;;;12.35;6.75;;;;;;;;;;5096431;28;20024;-46
2022/03/23 06:21:21;;;;;;;8.65;6.93;;;;;;;;;;5096452;28;20459;-47
2022/03/23 06:23:47;;;;;;;14.60;8.25;;;;;;;;;;5096008;28;20024;-46
2022/03/23 06:26:12;;;;;;;19.60;9.65;;;;;;;;;;5096274;28;20058;-48
2022/03/23 06:28:38;;;;;;;17.40;9.77;;;;;;;;;;5096087;28;20024;-46
2022/03/23 06:31:04;;;;;;;23.58;11.00;;;;;;;;;;5095879;28;20020;-47
2022/03/23 06:33:29;;;;;;;18.42;9.30;;;;;;;;;;5095922;28;20062;-47
2022/03/23 06:35:55;;;;;;;15.48;6.95;;;;;;;;;;5096235;28;20054;-47
2022/03/23 06:38:20;;;;;;;19.00;10.25;;;;;;;;;;5096065;28;20379;-47
2022/03/23 06:40:47;;;;;;;20.38;9.57;;;;;;;;;;5096101;28;20464;-47
2022/03/23 06:43:12;;;;;;;22.70;10.38;;;;;;;;;;5095513;28;20115;-47
2022/03/23 06:45:40;;;;;;;20.25;8.70;;;;;;;;;;5095601;28;20106;-47
2022/03/23 06:48:08;;;;;;;24.45;8.70;;;;;;;;;;5095655;28;20032;-47
2022/03/23 06:50:35;;;;;;;27.30;11.43;;;;;;;;;;5095844;28;20036;-49
2022/03/23 06:53:01;;;;;;;13.13;7.40;;;;;;;;;;5095568;28;20050;-47
2022/03/23 06:55:27;;;;;;;16.35;8.32;;;;;;;;;;5095461;28;20032;-50
2022/03/23 06:57:53;;;;;;;18.58;8.68;;;;;;;;;;5095291;28;20031;-47
2022/03/23 07:00:19;;;;;;;19.80;9.23;;;;;;;;;;5095569;28;20024;-49
2022/03/23 07:02:46;;;;;;;19.27;8.60;;;;;;;;;;5095579;28;20384;-49
2022/03/23 07:05:14;;;;;;;15.15;7.88;;;;;;;;;;5095378;28;20028;-48
2022/03/23 07:09:31;;;;;;;32.45;11.60;;;;;;;;;;5095432;28;20024;-47
2022/03/23 07:10:31;;;;;;;14.77;8.45;;;;;;;;;;5095140;28;20625;-48
2022/03/23 07:12:57;;;;;;;18.05;8.32;;;;;;;;;;5094493;28;20020;-47
2022/03/23 07:15:24;;;;;;;29.83;11.80;;;;;;;;;;5095313;28;20048;-47
2022/03/23 07:17:50;;;;;;;13.57;7.70;;;;;;;;;;5076864;28;20024;-49
2022/03/23 07:20:16;;;;;;;12.50;7.82;;;;;;;;;;5095012;28;20026;-48
2022/03/23 07:22:41;;;;;;;21.83;10.27;;;;;;;;;;5094452;28;20036;-50
2022/03/23 07:25:07;;;;;;;31.17;11.68;;;;;;;;;;5094877;28;20047;-48
2022/03/23 07:27:32;;;;;;;22.23;9.85;;;;;;;;;;5094875;28;20024;-48
2022/03/23 07:29:58;;;;;;;29.10;11.63;;;;;;;;;;5092925;28;20028;-51
2022/03/23 07:32:24;;;;;;;30.50;12.30;;;;;;;;;;5094665;28;20486;-49
2022/03/23 07:34:49;;;;;;;27.73;10.32;;;;;;;;;;5094858;28;20039;-48
2022/03/23 07:37:15;;;;;;;37.50;11.75;;;;;;;;;;5094769;28;20050;-52
2022/03/23 07:39:41;;;;;;;26.08;12.55;;;;;;;;;;5094697;28;20031;-49
2022/03/23 07:42:07;;;;;;;16.65;7.80;;;;;;;;;;5094159;28;20028;-48
2022/03/23 07:44:32;;;;;;;17.40;7.95;;;;;;;;;;5094671;28;20090;-48
2022/03/23 07:46:59;;;;;;;34.78;8.25;;;;;;;;;;5094604;28;20455;-47
2022/03/23 07:49:25;;;;;;;33.53;11.63;;;;;;;;;;5094230;28;20046;-48
2022/03/23 07:51:50;;;;;;;16.67;8.00;;;;;;;;;;5075609;28;20086;-48
2022/03/23 07:54:16;;;;;;;30.23;13.35;;;;;;;;;;5093827;28;20064;-49
2022/03/23 07:56:42;;;;;;;19.15;8.95;;;;;;;;;;5093544;28;20035;-49
2022/03/23 07:59:08;;;;;;;22.95;9.98;;;;;;;;;;5090181;28;20036;-46
2022/03/23 08:01:33;;;;;;;36.53;11.90;;;;;;;;;;5091464;28;20024;-47
2022/03/23 08:04:00;;;;;;;9.82;6.47;;;;;;;;;;5093313;28;20057;-54
2022/03/23 08:06:26;;;;;;;15.50;6.28;;;;;;;;;;5093701;28;20031;-47
2022/03/23 08:08:52;;;;;;;26.52;11.38;;;;;;;;;;5093774;28;20020;-46
2022/03/23 08:11:18;;;;;;;20.25;9.05;;;;;;;;;;5093512;28;20066;-47
2022/03/23 08:13:44;;;;;;;20.00;8.50;;;;;;;;;;5075538;28;20468;-47
2022/03/23 08:16:09;;;;;;;44.50;11.85;;;;;;;;;;5093879;28;20535;-52
2022/03/23 08:18:35;;;;;;;25.83;9.75;;;;;;;;;;5092183;28;20510;-52
2022/03/23 08:21:01;;;;;;;20.83;7.90;;;;;;;;;;5091798;28;20020;-48
2022/03/23 08:23:29;;;;;;;15.32;6.25;;;;;;;;;;5089863;28;20032;-53
2022/03/23 08:25:55;;;;;;;39.22;12.23;;;;;;;;;;5090931;28;20084;-46
2022/03/23 08:28:20;;;;;;;15.52;7.90;;;;;;;;;;5074028;28;20114;-59
2022/03/23 08:30:46;;;;;;;14.43;6.13;;;;;;;;;;5092311;28;20467;-48
2022/03/23 08:33:12;;;;;;;36.17;11.27;;;;;;;;;;5091553;28;20027;-57
2022/03/23 08:35:37;;;;;;;18.55;6.90;;;;;;;;;;5091423;28;20464;-57
2022/03/23 08:38:05;;;;;;;27.63;6.35;;;;;;;;;;5091147;28;20111;-59
2022/03/23 08:40:30;;;;;;;22.95;7.47;;;;;;;;;;5088005;28;20691;-58
2022/03/23 08:42:58;;;;;;;28.98;10.50;;;;;;;;;;5090728;28;20020;-58
2022/03/23 08:45:24;;;;;;;14.30;7.22;;;;;;;;;;5091301;28;20071;-50
2022/03/23 08:47:49;;;;;;;22.10;8.90;;;;;;;;;;5091781;28;20028;-56
2022/03/23 08:50:16;;;;;;;34.97;6.70;;;;;;;;;;5091774;28;20028;-46
2022/03/23 08:52:42;;;;;;;15.82;8.07;;;;;;;;;;5091831;28;20032;-47
2022/03/23 08:55:10;;;;;;;17.58;7.82;;;;;;;;;;5091327;28;20407;-46
2022/03/23 08:57:38;;;;;;;19.27;7.35;;;;;;;;;;5091377;28;20028;-46
2022/03/23 09:00:06;;;;;;;27.17;8.40;;;;;;;;;;5091494;28;20078;-47
2022/03/23 09:02:32;;;;;;;14.90;6.63;;;;;;;;;;5091285;28;20053;-56
2022/03/23 09:04:58;;;;;;;14.55;6.90;;;;;;;;;;5091287;28;20383;-46
2022/03/23 09:07:23;;;;;;;91.38;12.85;;;;;;;;;;5091550;28;20074;-49
2022/03/23 09:09:49;;;;;;;17.70;6.68;;;;;;;;;;5091545;28;20119;-46
2022/03/23 09:12:15;;;;;;;32.15;7.95;;;;;;;;;;5091164;28;20055;-46
2022/03/23 09:14:41;;;;;;;20.98;8.52;;;;;;;;;;5091220;28;20036;-48
2022/03/23 09:17:06;;;;;;;18.70;6.28;;;;;;;;;;5090412;28;20043;-46
2022/03/23 09:19:33;;;;;;;33.58;8.95;;;;;;;;;;5090614;28;20028;-47
2022/03/23 09:21:59;;;;;;;23.02;8.25;;;;;;;;;;5090613;28;20110;-48
2022/03/23 09:24:26;;;;;;;18.27;8.40;;;;;;;;;;5090415;28;20536;-46
2022/03/23 09:26:53;;;;;;;31.50;5.82;;;;;;;;;;5090687;28;20433;-50
2022/03/23 09:29:19;;;;;;;17.95;6.70;;;;;;;;;;5090499;28;20024;-49
2022/03/23 09:31:44;;;;;;;25.40;7.20;;;;;;;;;;5090899;28;20051;-53
2022/03/23 09:34:10;;;;;;;10.70;5.55;;;;;;;;;;5089924;28;20034;-47
2022/03/23 09:39:20;;;;;;;19.35;7.00;;;;;;;;;;5089739;28;20043;-46
2022/03/23 09:41:46;;;;;;;27.63;8.50;;;;;;;;;;5090367;28;20411;-58
2022/03/23 09:44:12;;;;;;;11.95;5.18;;;;;;;;;;5089255;28;20032;-48
2022/03/23 09:46:38;;;;;;;12.38;4.43;;;;;;;;;;5090613;28;20035;-46
2022/03/23 09:49:06;;;;;;;18.80;6.50;;;;;;;;;;5091145;28;20032;-47
2022/03/23 09:51:33;;;;;;;15.32;6.10;;;;;;;;;;5090477;28;20035;-49
2022/03/23 09:54:00;;;;;;;19.45;7.53;;;;;;;;;;5090045;28;20060;-47
2022/03/23 09:56:27;;;;;;;15.18;7.10;;;;;;;;;;5090728;28;20107;-47
2022/03/23 09:58:52;;;;;;;17.30;5.95;;;;;;;;;;5090735;28;20454;-47
2022/03/23 10:01:30;;;;;;;21.00;6.88;;;;;;;;;;5090225;28;20023;-47
2022/03/23 10:04:18;;;;;;;25.58;7.68;;;;;;;;;;5090886;28;20099;-60
2022/03/23 10:06:55;;;;;;;16.13;6.90;;;;;;;;;;5090878;28;20042;-58
2022/03/23 10:09:40;;;;;;;17.50;6.57;;;;;;;;;;5090622;28;20562;-59
2022/03/23 10:12:43;;;;;;;16.33;5.43;;;;;;;;;;5090580;28;20028;-59
2022/03/23 10:15:45;;;;;;;23.48;5.20;;;;;;;;;;5088061;28;20497;-60
2022/03/23 10:18:49;;;;;;;10.73;5.07;;;;;;;;;;5088441;28;20032;-46
2022/03/23 10:21:15;;;;;;;8.60;4.00;;;;;;;;;;5089267;28;20035;-59
2022/03/23 10:23:51;;;;;;;10.20;3.53;;;;;;;;;;5089552;28;20036;-49
2022/03/23 10:26:16;;;;;;;19.20;6.45;;;;;;;;;;5087763;28;20026;-60
2022/03/23 10:28:42;;;;;;;20.17;6.65;;;;;;;;;;5090259;28;20379;-60
2022/03/23 10:31:16;;;;;;;15.82;4.15;;;;;;;;;;5090208;28;20032;-60
2022/03/23 10:33:42;;;;;;;7.40;3.45;;;;;;;;;;5089749;28;20028;-60
2022/03/23 10:36:08;;;;;;;11.63;5.70;;;;;;;;;;5090674;28;20031;-56
2022/03/23 10:38:38;;;;;;;25.38;5.43;;;;;;;;;;5090164;28;20024;-57
2022/03/23 10:41:25;;;;;;;13.70;4.00;;;;;;;;;;5072219;28;20032;-51
2022/03/23 10:43:51;;;;;;;11.15;4.72;;;;;;;;;;5090026;28;20117;-55
2022/03/23 10:46:17;;;;;;;7.57;3.72;;;;;;;;;;5090644;28;20052;-60
2022/03/23 10:49:11;;;;;;;11.98;4.65;;;;;;;;;;5094342;28;20024;-46
2022/03/23 10:51:38;;;;;;;9.48;4.07;;;;;;;;;;5090357;28;20044;-47
2022/03/23 10:54:17;;;;;;;11.85;5.20;;;;;;;;;;5093784;28;20048;-59
2022/03/23 10:56:43;;;;;;;13.25;4.35;;;;;;;;;;5093922;28;20039;-49
2022/03/23 10:59:22;;;;;;;7.00;3.10;;;;;;;;;;5093124;28;20161;-46
2022/03/23 11:02:08;;;;;;;7.70;4.10;;;;;;;;;;5093613;28;20028;-54
2022/03/23 11:04:50;;;;;;;13.07;4.60;;;;;;;;;;5092807;28;20044;-47
2022/03/23 11:07:40;;;;;;;4.18;3.03;;;;;;;;;;5094551;28;20035;-59
2022/03/23 11:15:48;;;;;;;11.15;4.68;;;;;;;;;;5079949;28;20089;-59
2022/03/23 11:18:17;;;;;;;10.77;4.95;;;;;;;;;;5095358;28;20116;-58
2022/03/23 11:20:52;;;;;;;7.40;3.05;;;;;;;;;;5094977;28;20028;-54
2022/03/23 11:23:25;;;;;;;11.75;4.07;;;;;;;;;;5094730;28;20020;-58
2022/03/23 11:25:52;;;;;;;9.80;4.40;;;;;;;;;;5076722;28;20502;-51
2022/03/23 11:28:18;;;;;;;8.55;4.85;;;;;;;;;;5095072;28;20036;-54
2022/03/23 11:30:46;;;;;;;10.50;5.65;;;;;;;;;;5095100;28;20112;-56
2022/03/23 11:33:15;;;;;;;7.95;3.63;;;;;;;;;;5093810;28;20082;-56
2022/03/23 11:35:47;;;;;;;9.15;4.00;;;;;;;;;;5094394;28;20094;-55
2022/03/23 11:38:14;;;;;;;8.10;4.18;;;;;;;;;;5094488;28;20024;-55
2022/03/23 11:40:44;;;;;;;10.43;4.25;;;;;;;;;;5094382;28;20024;-48
2022/03/23 11:43:14;;;;;;;7.22;3.67;;;;;;;;;;5094461;28;20038;-56
2022/03/23 11:45:41;;;;;;;;;;;;;;;;;;5094850;28;20035;-48
2022/03/23 11:48:30;;;;;;;4.75;3.33;;;;;;;;;;5094203;28;19912;-46
2022/03/23 11:51:33;;;;;;;12.40;5.05;;;;;;;;;;5092882;28;20050;-46
2022/03/23 11:53:58;;;;;;;13.00;4.80;;;;;;;;;;5093744;28;20102;-60
2022/03/23 11:56:33;;;;;;;12.50;3.92;;;;;;;;;;5094118;28;20032;-60
2022/03/23 11:59:24;;;;;;;18.02;3.75;;;;;;;;;;5094087;28;20523;-60
2022/03/23 12:01:51;;;;;;;8.07;2.97;;;;;;;;;;5076463;28;20420;-59
2022/03/23 12:04:21;;;;;;;16.45;5.32;;;;;;;;;;5094303;28;20402;-58
2022/03/23 12:07:00;;;;;;;9.05;4.00;;;;;;;;;;5094229;28;20379;-58
2022/03/23 12:09:33;;;;;;;26.50;6.68;;;;;;;;;;5094029;28;20035;-57
2022/03/23 12:12:00;;;;;;;12.63;4.80;;;;;;;;;;5094129;28;20024;-60
2022/03/23 12:14:31;;;;;;;10.98;4.85;;;;;;;;;;5094158;28;20020;-61
2022/03/23 12:16:56;;;;;;;11.73;4.30;;;;;;;;;;5094195;28;20047;-60
2022/03/23 12:19:27;;;;;;;15.13;4.55;;;;;;;;;;5094145;28;20463;-59
2022/03/23 12:21:58;;;;;;;14.05;5.22;;;;;;;;;;5093879;28;20032;-59
2022/03/23 12:24:46;;;;;;;10.15;4.72;;;;;;;;;;5093279;28;20035;-58
2022/03/23 12:27:17;;;;;;;6.35;3.83;;;;;;;;;;5093969;28;20024;-59
2022/03/23 12:29:46;;;;;;;8.43;4.22;;;;;;;;;;5093754;28;20012;-59
2022/03/23 12:32:13;;;;;;;9.63;4.68;;;;;;;;;;5093278;28;20020;-58
2022/03/23 12:34:41;;;;;;;7.55;3.75;;;;;;;;;;5093746;28;20035;-56
2022/03/23 12:37:16;;;;;;;11.02;4.70;;;;;;;;;;5093691;28;20035;-59
2022/03/23 12:39:46;;;;;;;10.57;4.30;;;;;;;;;;5090251;28;20028;-58
2022/03/23 12:42:12;;;;;;;10.98;5.13;;;;;;;;;;5087192;28;20028;-58
2022/03/23 12:44:39;;;;;;;8.95;4.57;;;;;;;;;;5087426;28;20383;-59
2022/03/23 12:47:10;;;;;;;8.98;4.00;;;;;;;;;;5093466;28;20027;-58
2022/03/23 12:58:02;;;;;;;9.38;4.20;;;;;;;;;;5093133;28;20055;-59
2022/03/23 13:00:30;;;;;;;7.20;3.05;;;;;;;;;;5091262;28;20024;-58
2022/03/23 13:03:08;;;;;;;13.80;6.15;;;;;;;;;;5093284;28;20021;-58
2022/03/23 13:05:36;;;;;;;15.27;6.30;;;;;;;;;;5092775;28;20038;-59
2022/03/23 13:08:27;;;;;;;12.68;5.68;;;;;;;;;;5093165;28;20028;-59
2022/03/23 13:10:58;;;;;;;13.65;4.82;;;;;;;;;;5091990;28;20024;-59
2022/03/23 13:13:29;;;;;;;12.50;4.05;;;;;;;;;;5072783;28;20024;-59
2022/03/23 13:15:55;;;;;;;10.05;4.90;;;;;;;;;;5071289;28;20021;-58
2022/03/23 13:18:28;;;;;;;13.60;4.68;;;;;;;;;;5071765;28;20036;-58
2022/03/23 13:20:54;;;;;;;8.20;3.80;;;;;;;;;;5072346;28;20024;-59
2022/03/23 13:23:21;;;;;;;3.15;2.60;;;;;;;;;;5072197;28;20036;-59
2022/03/23 13:26:02;;;;;;;12.38;4.25;;;;;;;;;;5072852;28;20097;-59
2022/03/23 13:28:28;;;;;;;10.02;4.40;;;;;;;;;;5072607;28;20036;-59
2022/03/23 13:30:58;;;;;;;10.52;5.30;;;;;;;;;;5072656;28;20354;-59
2022/03/23 13:33:26;;;;;;;12.85;5.07;;;;;;;;;;5072354;28;20037;-59
2022/03/23 13:35:54;;;;;;;9.57;4.82;;;;;;;;;;5072245;28;20032;-58
2022/03/23 13:38:20;;;;;;;20.98;6.18;;;;;;;;;;5072564;28;20029;-59
2022/03/23 13:43:32;;;;;;;13.05;4.85;;;;;;;;;;5072465;28;20040;-59
2022/03/23 13:46:01;;;;;;;15.00;4.78;;;;;;;;;;5072294;28;20469;-58
2022/03/23 13:48:33;;;;;;;25.40;4.70;;;;;;;;;;5054817;28;20399;-58
2022/03/23 13:51:00;;;;;;;13.40;4.38;;;;;;;;;;5054397;28;20074;-59
2022/03/23 13:53:26;;;;;;;15.25;5.47;;;;;;;;;;5071943;28;20098;-59
2022/03/23 13:55:53;;;;;;;10.02;4.18;;;;;;;;;;5072479;28;20036;-59
2022/03/23 13:58:22;;;;;;;11.18;4.47;;;;;;;;;;5072255;28;20051;-58
2022/03/23 14:00:50;;;;;;;16.15;4.60;;;;;;;;;;5053953;28;20025;-59
2022/03/23 14:03:35;;;;;;;9.75;4.50;;;;;;;;;;5072081;28;20037;-58
2022/03/23 14:06:10;;;;;;;12.32;4.57;;;;;;;;;;5072445;28;20066;-59
2022/03/23 14:08:37;;;;;;;9.30;4.78;;;;;;;;;;5072081;28;20028;-59
2022/03/23 14:11:10;;;;;;;12.45;5.38;;;;;;;;;;5072222;28;20032;-59
2022/03/23 14:13:37;;;;;;;17.73;8.45;;;;;;;;;;5072109;28;20031;-51
2022/03/23 14:16:04;;;;;;;13.75;5.43;;;;;;;;;;5072296;28;20103;-48
2022/03/23 14:18:31;;;;;;;9.75;5.13;;;;;;;;;;5071894;28;20576;-52
2022/03/23 14:20:59;;;;;;;19.08;5.85;;;;;;;;;;5073208;28;20158;-51
2022/03/23 14:23:30;;;;;;;8.90;4.05;;;;;;;;;;5076038;28;20021;-57
2022/03/23 14:25:57;;;;;;;10.43;3.92;;;;;;;;;;5076206;28;20380;-57
2022/03/23 14:28:25;;;;;;;11.13;4.50;;;;;;;;;;5075803;28;20070;-55
2022/03/23 14:30:59;;;;;;;13.02;5.38;;;;;;;;;;5075654;28;20545;-55
2022/03/23 14:33:26;;;;;;;17.17;5.93;;;;;;;;;;5057753;28;20032;-57
2022/03/23 14:35:53;;;;;;;14.80;5.75;;;;;;;;;;5075870;28;20027;-53
2022/03/23 14:38:22;;;;;;;12.48;4.72;;;;;;;;;;5075462;28;20120;-58
2022/03/23 14:41:00;;;;;;;17.85;5.10;;;;;;;;;;5075542;28;20067;-55
2022/03/23 14:43:37;;;;;;;22.48;5.45;;;;;;;;;;5075368;28;20108;-58
2022/03/23 14:46:24;;;;;;;11.52;5.25;;;;;;;;;;5075297;28;20495;-57
2022/03/23 14:49:04;;;;;;;10.07;5.03;;;;;;;;;;5075668;28;20060;-57
2022/03/23 14:51:32;;;;;;;14.75;5.30;;;;;;;;;;5075551;28;20029;-58
2022/03/23 14:53:57;;;;;;;9.43;4.68;;;;;;;;;;5074949;28;20561;-51
2022/03/23 14:56:23;;;;;;;12.80;5.07;;;;;;;;;;5075359;28;20119;-54
2022/03/23 14:58:56;;;;;;;17.25;6.28;;;;;;;;;;5074980;28;20111;-57
2022/03/23 15:01:22;;;;;;;19.23;7.60;;;;;;;;;;5075156;28;20025;-55
2022/03/23 15:03:47;;;;;;;23.45;6.80;;;;;;;;;;5075269;28;20154;-51